Time;durP1;ratioP1;P1;durP2;ratioP2;P2;SDS_P1;SDS_P2;PMS_P1;PMS_P2;Temp;Humidity;BMP_temperature;BMP_pressure;BME280_temperature;BME280_humidity;BME280_pressure;Samples;Min_cycle;Max_cycle;Signal;HPM_P1;HPM_P2
2023/04/29 00:00:09;;;;;;;10.70;4.90;;;;;;;5.13;52.21;99569.41;107443;1254;68765;-38
2023/04/29 00:02:39;;;;;;;10.60;4.40;;;;;;;5.12;52.45;99567.08;107494;1254;74078;-37
2023/04/29 00:05:07;;;;;;;10.30;5.00;;;;;;;5.10;52.39;99567.13;107435;1254;61359;-38
2023/04/29 00:07:35;;;;;;;8.50;4.60;;;;;;;5.09;52.46;99570.64;107373;1253;62117;-38
2023/04/29 00:10:03;;;;;;;7.50;3.80;;;;;;;5.08;52.31;99570.42;107418;1253;75165;-38
2023/04/29 00:12:32;;;;;;;7.80;4.30;;;;;;;5.06;52.51;99568.22;107510;1253;69193;-38
2023/04/29 00:15:01;;;;;;;7.60;4.40;;;;;;;5.04;52.60;99568.55;107489;1254;74630;-38
2023/04/29 00:17:29;;;;;;;6.80;3.50;;;;;;;5.02;52.56;99566.20;107533;1253;60906;-38
2023/04/29 00:19:56;;;;;;;6.20;3.50;;;;;;;5.01;52.43;99562.44;107481;1253;63138;-38
2023/04/29 00:22:23;;;;;;;6.80;3.50;;;;;;;4.99;52.50;99564.05;107462;1253;75160;-38
2023/04/29 00:24:51;;;;;;;7.30;3.30;;;;;;;4.97;52.75;99565.18;107444;1253;69490;-37
2023/04/29 00:27:19;;;;;;;6.30;3.40;;;;;;;4.94;52.86;99560.39;107461;1253;74290;-37
2023/04/29 00:29:46;;;;;;;5.60;3.20;;;;;;;4.92;52.92;99561.52;107345;1255;60434;-37
2023/04/29 00:32:13;;;;;;;7.30;3.30;;;;;;;4.91;52.72;99560.45;107411;1253;62625;-38
2023/04/29 00:34:41;;;;;;;4.70;2.90;;;;;;;4.88;52.79;99566.02;107412;1253;75787;-38
2023/04/29 00:37:08;;;;;;;5.60;3.20;;;;;;;4.86;53.05;99565.26;107363;1254;70663;-38
2023/04/29 00:39:35;;;;;;;5.80;3.00;;;;;;;4.81;52.99;99556.79;107351;1254;74509;-38
2023/04/29 00:42:03;;;;;;;8.50;3.50;;;;;;;4.83;52.90;99563.02;107445;1254;61104;-38
2023/04/29 00:44:30;;;;;;;6.20;3.20;;;;;;;4.79;52.99;99563.16;107339;1253;62458;-38
2023/04/29 00:46:58;;;;;;;6.10;3.60;;;;;;;4.76;53.28;99559.75;107520;1253;76158;-38
2023/04/29 00:49:26;;;;;;;5.90;3.20;;;;;;;4.74;53.08;99557.02;107443;1254;69445;-38
2023/04/29 00:51:54;;;;;;;8.20;3.10;;;;;;;4.71;53.44;99558.37;107418;1253;75004;-38
2023/04/29 00:54:21;;;;;;;5.30;2.80;;;;;;;4.70;53.42;99559.46;107520;1254;61835;-38
2023/04/29 00:56:49;;;;;;;6.00;2.90;;;;;;;4.68;53.49;99563.93;107551;1254;62532;-37
2023/04/29 00:59:16;;;;;;;6.80;3.80;;;;;;;4.67;53.53;99567.89;107535;1254;75830;-37
2023/04/29 01:01:43;;;;;;;7.10;3.10;;;;;;;4.65;53.77;99573.27;107484;1253;70270;-37
2023/04/29 01:04:12;;;;;;;6.00;3.10;;;;;;;4.63;53.64;99577.50;107467;1254;72570;-37
2023/04/29 01:07:01;;;;;;;8.90;3.20;;;;;;;4.61;53.85;99578.22;107273;1256;60418;-37
2023/04/29 01:10:00;;;;;;;7.80;3.60;;;;;;;4.59;53.91;99575.16;107514;1254;62439;-36
2023/04/29 01:12:36;;;;;;;5.80;3.20;;;;;;;4.56;54.17;99573.70;107485;1252;72840;-37
2023/04/29 01:15:27;;;;;;;6.10;3.80;;;;;;;4.51;54.23;99573.48;107447;1254;67851;-37
2023/04/29 01:17:59;;;;;;;8.00;4.30;;;;;;;4.48;54.30;99571.95;107509;1254;71053;-37
2023/04/29 01:20:26;;;;;;;8.00;4.30;;;;;;;4.44;54.40;99572.46;107472;1254;59690;-37
2023/04/29 01:22:54;;;;;;;6.30;4.00;;;;;;;4.41;54.22;99569.73;107513;1254;61340;-36
2023/04/29 01:25:21;;;;;;;4.80;3.40;;;;;;;4.38;54.42;99570.58;107360;1253;74648;-36
2023/04/29 01:28:39;;;;;;;6.10;3.90;;;;;;;4.36;54.63;99573.69;107508;1254;68689;-37
2023/04/29 01:31:43;;;;;;;5.40;3.30;;;;;;;4.33;54.60;99575.17;107068;1253;73983;-37
2023/04/29 01:34:22;;;;;;;6.60;3.70;;;;;;;4.28;54.65;99577.24;107407;1258;61697;-37
2023/04/29 01:37:20;;;;;;;7.20;3.30;;;;;;;4.24;54.88;99582.16;107436;1253;62574;-37
2023/04/29 01:40:09;;;;;;;6.20;3.20;;;;;;;4.23;54.86;99588.63;107299;1254;74730;-36
2023/04/29 01:43:00;;;;;;;6.50;3.30;;;;;;;4.20;54.98;99589.64;107522;1253;68001;-37
2023/04/29 01:45:30;;;;;;;5.50;3.40;;;;;;;4.17;55.11;99586.54;107503;1254;74940;-37
2023/04/29 01:47:57;;;;;;;6.80;3.50;;;;;;;4.14;55.01;99586.30;107527;1258;60713;-37
2023/04/29 01:50:25;;;;;;;5.70;3.50;;;;;;;4.13;55.09;99588.52;107381;1253;60300;-36
2023/04/29 01:52:54;;;;;;;8.50;3.40;;;;;;;4.12;55.16;99591.19;107524;1253;73338;-36
2023/04/29 01:55:22;;;;;;;5.10;3.30;;;;;;;4.11;55.20;99588.78;107369;1254;70332;-36
2023/04/29 01:57:58;;;;;;;7.60;4.00;;;;;;;4.12;55.32;99590.42;107391;1255;72013;-37
2023/04/29 02:00:48;;;;;;;6.40;3.70;;;;;;;4.10;55.39;99588.88;107508;1253;60595;-37
2023/04/29 02:03:16;;;;;;;8.80;3.90;;;;;;;4.06;55.65;99588.07;107571;1258;60434;-37
2023/04/29 02:05:49;;;;;;;6.70;3.80;;;;;;;4.05;55.78;99588.39;107396;1254;73730;-37
2023/04/29 02:08:17;;;;;;;5.90;3.70;;;;;;;4.02;55.79;99587.49;107550;1254;70157;-37
2023/04/29 02:10:54;;;;;;;7.60;4.60;;;;;;;4.00;55.92;99595.06;107507;1254;72826;-37
2023/04/29 02:13:30;;;;;;;8.10;4.10;;;;;;;3.98;56.09;99602.77;107513;1253;59587;-37
2023/04/29 02:16:06;;;;;;;6.20;3.80;;;;;;;3.95;56.05;99600.88;107546;1254;60174;-37
2023/04/29 02:18:34;;;;;;;6.40;3.00;;;;;;;3.94;56.02;99604.13;107586;1254;72587;-37
2023/04/29 02:21:03;;;;;;;7.20;3.60;;;;;;;3.93;55.96;99602.80;107553;1254;67704;-37
2023/04/29 02:23:33;;;;;;;4.00;2.70;;;;;;;3.95;56.04;99604.70;107504;1258;71081;-37
2023/04/29 02:26:00;;;;;;;5.40;3.10;;;;;;;3.94;56.04;99606.73;107585;1254;60137;-37
2023/04/29 02:28:28;;;;;;;10.40;3.50;;;;;;;3.94;56.03;99607.72;107546;1254;61416;-37
2023/04/29 02:30:56;;;;;;;5.30;2.80;;;;;;;3.90;56.06;99607.49;107538;1254;73512;-37
2023/04/29 02:33:23;;;;;;;5.90;3.30;;;;;;;3.85;56.13;99610.46;107519;1258;69924;-37
2023/04/29 02:35:51;;;;;;;8.40;3.30;;;;;;;3.82;56.10;99611.99;107531;1254;73985;-37
2023/04/29 02:38:18;;;;;;;4.00;2.80;;;;;;;3.80;56.30;99611.52;107515;1254;61859;-36
2023/04/29 02:40:46;;;;;;;8.60;2.90;;;;;;;3.80;56.42;99612.90;107556;1254;61053;-36
2023/04/29 02:43:13;;;;;;;6.00;3.10;;;;;;;3.80;56.20;99614.54;107447;1254;75430;-36
2023/04/29 02:45:40;;;;;;;8.10;3.30;;;;;;;3.78;56.39;99615.97;107510;1254;68918;-36
2023/04/29 02:48:08;;;;;;;6.80;3.00;;;;;;;3.77;56.42;99613.48;107605;1254;72108;-36
2023/04/29 02:50:35;;;;;;;5.40;3.10;;;;;;;3.77;56.36;99617.76;107379;1253;61527;-36
2023/04/29 02:53:03;;;;;;;4.40;3.10;;;;;;;3.76;56.43;99621.92;107434;1254;60416;-36
2023/04/29 02:55:30;;;;;;;4.10;2.50;;;;;;;3.73;56.61;99624.84;107428;1254;75166;-37
2023/04/29 02:58:02;;;;;;;5.60;2.70;;;;;;;3.71;56.54;99629.13;107490;1254;68000;-37
2023/04/29 03:00:30;;;;;;;4.70;2.90;;;;;;;3.69;56.60;99631.48;107505;1254;74612;-37
2023/04/29 03:02:57;;;;;;;5.60;2.90;;;;;;;3.68;56.68;99632.31;107404;1257;60520;-37
2023/04/29 03:05:24;;;;;;;4.00;2.70;;;;;;;3.68;56.82;99636.02;107456;1253;61514;-36
2023/04/29 03:07:52;;;;;;;6.30;3.10;;;;;;;3.68;56.98;99636.46;107523;1253;73358;-36
2023/04/29 03:10:19;;;;;;;6.30;3.60;;;;;;;3.65;57.06;99640.32;107526;1254;68395;-36
2023/04/29 03:12:46;;;;;;;4.70;3.00;;;;;;;3.66;56.95;99641.02;107496;1254;73550;-37
2023/04/29 03:15:14;;;;;;;4.90;3.10;;;;;;;3.68;56.97;99645.19;107551;1254;60861;-37
2023/04/29 03:17:44;;;;;;;5.70;3.00;;;;;;;3.69;56.99;99647.15;107535;1254;60499;-37
2023/04/29 03:20:12;;;;;;;8.10;3.10;;;;;;;3.68;57.03;99650.39;107527;1253;74990;-37
2023/04/29 03:22:39;;;;;;;4.90;3.40;;;;;;;3.67;57.19;99648.47;107503;1257;70105;-37
2023/04/29 03:25:09;;;;;;;6.20;3.00;;;;;;;3.68;57.10;99653.23;107510;1254;72336;-37
2023/04/29 03:27:39;;;;;;;6.90;3.10;;;;;;;3.71;57.16;99655.90;107541;1254;60510;-37
2023/04/29 03:30:07;;;;;;;8.30;3.50;;;;;;;3.74;57.22;99655.29;107517;1254;60367;-37
2023/04/29 03:32:39;;;;;;;7.00;3.50;;;;;;;3.78;56.90;99661.63;107503;1253;76180;-37
2023/04/29 03:35:07;;;;;;;7.10;3.10;;;;;;;3.80;57.09;99664.45;107383;1253;67008;-37
2023/04/29 03:37:38;;;;;;;7.00;3.40;;;;;;;3.84;56.97;99665.86;107360;1253;72792;-37
2023/04/29 03:40:31;;;;;;;8.30;3.40;;;;;;;3.89;56.93;99670.23;107155;1256;60541;-38
2023/04/29 03:42:59;;;;;;;5.60;3.20;;;;;;;3.91;57.11;99677.09;107123;1255;61040;-38
2023/04/29 03:45:27;;;;;;;8.50;4.20;;;;;;;3.98;56.89;99678.05;107222;1255;76014;-37
2023/04/29 03:47:54;;;;;;;8.90;4.00;;;;;;;4.04;57.03;99680.70;107238;1255;69335;-37
2023/04/29 03:50:22;;;;;;;8.10;3.90;;;;;;;4.10;56.85;99682.45;107127;1256;179400;-37
2023/04/29 03:55:07;;;;;;;5.70;3.60;;;;;;;4.21;56.91;99678.09;104351;1289;600299;-37
2023/04/29 03:57:36;;;;;;;8.20;3.70;;;;;;;4.24;56.95;99682.71;106753;1271;60352;-37
2023/04/29 04:00:04;;;;;;;6.70;3.80;;;;;;;4.31;56.90;99684.45;106732;1264;61774;-37
2023/04/29 04:02:39;;;;;;;8.30;4.50;;;;;;;4.39;56.70;99685.65;106742;1263;72373;-37
2023/04/29 04:05:07;;;;;;;7.20;4.30;;;;;;;4.45;56.62;99689.63;106766;1264;69057;-37
2023/04/29 04:07:36;;;;;;;8.70;4.90;;;;;;;4.51;56.63;99688.48;106595;1267;196344;-39
2023/04/29 04:10:34;;;;;;;9.00;5.10;;;;;;;4.59;56.50;99684.86;106864;1264;60765;-38
2023/04/29 04:13:05;;;;;;;9.60;4.70;;;;;;;4.62;56.46;99684.78;106852;1261;60436;-38
2023/04/29 04:15:32;;;;;;;7.10;4.50;;;;;;;4.69;56.27;99688.63;106898;1267;73968;-38
2023/04/29 04:18:00;;;;;;;6.90;4.50;;;;;;;4.75;56.32;99690.91;106767;1261;69676;-38
2023/04/29 04:20:27;;;;;;;6.70;3.80;;;;;;;4.82;56.38;99689.48;106737;1264;72940;-38
2023/04/29 04:22:54;;;;;;;5.70;3.50;;;;;;;4.91;56.34;99691.55;106794;1261;61728;-38
2023/04/29 04:25:24;;;;;;;8.90;4.40;;;;;;;4.99;56.33;99691.67;106903;1261;60506;-38
2023/04/29 04:27:53;;;;;;;7.20;3.50;;;;;;;5.05;56.25;99691.06;106891;1261;74181;-38
2023/04/29 04:30:40;;;;;;;11.80;3.90;;;;;;;5.13;56.03;99691.73;106819;1264;69155;-38
2023/04/29 04:33:07;;;;;;;6.80;3.40;;;;;;;5.16;56.28;99692.74;106820;1261;74020;-38
2023/04/29 04:35:35;;;;;;;10.50;3.30;;;;;;;5.24;56.22;99691.23;106843;1263;59591;-38
2023/04/29 04:38:02;;;;;;;5.90;3.30;;;;;;;5.31;56.16;99693.23;107170;1254;62575;-38
2023/04/29 04:40:30;;;;;;;6.50;3.40;;;;;;;5.37;56.10;99693.35;104371;1254;1003678;-38
2023/04/29 04:43:17;;;;;;;6.80;3.40;;;;;;;5.48;56.32;99696.62;107310;1254;66788;-38
2023/04/29 04:45:45;;;;;;;8.80;3.30;;;;;;;5.57;56.22;99699.87;107448;1254;71055;-38
2023/04/29 04:48:13;;;;;;;6.40;3.40;;;;;;;5.66;56.15;99701.19;107343;1260;60514;-38
2023/04/29 04:50:42;;;;;;;5.50;3.00;;;;;;;5.77;56.00;99696.78;107324;1254;61523;-38
2023/04/29 04:53:10;;;;;;;5.40;2.70;;;;;;;5.87;55.73;99694.88;107284;1254;73866;-38
2023/04/29 04:55:50;;;;;;;5.40;2.80;;;;;;;5.99;55.24;99695.78;107430;1254;68177;-38
2023/04/29 04:58:17;;;;;;;6.30;2.80;;;;;;;6.10;54.69;99690.23;107297;1254;74609;-38
2023/04/29 05:00:45;;;;;;;5.40;2.60;;;;;;;6.23;54.11;99688.08;107285;1254;60681;-38
2023/04/29 05:03:13;;;;;;;3.80;2.40;;;;;;;6.36;53.71;99689.39;107429;1260;60396;-38
2023/04/29 05:05:40;;;;;;;5.00;2.20;;;;;;;6.50;53.29;99689.11;107386;1254;75478;-38
2023/04/29 05:08:07;;;;;;;6.30;2.70;;;;;;;6.64;53.32;99685.59;107263;1254;70135;-37
2023/04/29 05:10:39;;;;;;;3.10;2.10;;;;;;;6.78;53.21;99687.53;107360;1257;71522;-38
2023/04/29 05:13:07;;;;;;;3.00;2.20;;;;;;;6.92;52.97;99686.52;107512;1254;60927;-37
2023/04/29 05:15:34;;;;;;;4.00;2.30;;;;;;;7.06;52.89;99687.52;107627;1250;61646;-37
2023/04/29 05:18:02;;;;;;;3.40;2.00;;;;;;;7.21;51.86;99688.02;107639;1257;75476;-37
2023/04/29 05:20:30;;;;;;;4.50;1.90;;;;;;;7.36;50.34;99686.98;107678;1251;68152;-37
2023/04/29 05:22:58;;;;;;;4.60;2.20;;;;;;;7.52;49.87;99689.23;107597;1253;72299;-37
2023/04/29 05:25:26;;;;;;;7.20;2.10;;;;;;;7.67;49.24;99692.55;107649;1251;59631;-37
2023/04/29 05:27:54;;;;;;;4.10;1.90;;;;;;;7.82;48.28;99691.36;107735;1251;60019;-37
2023/04/29 05:30:21;;;;;;;6.00;1.80;;;;;;;7.95;48.58;99693.52;107709;1251;73166;-37
2023/04/29 05:32:49;;;;;;;4.70;1.60;;;;;;;8.08;48.14;99689.43;107811;1250;70168;-37
2023/04/29 05:35:17;;;;;;;2.60;1.80;;;;;;;8.23;47.53;99694.16;107612;1251;74151;-37
2023/04/29 05:37:45;;;;;;;3.90;1.90;;;;;;;8.36;47.15;99692.85;107717;1251;59618;-37
2023/04/29 05:40:35;;;;;;;3.90;1.80;;;;;;;8.52;46.55;99691.90;107657;1251;60540;-37
2023/04/29 05:43:28;;;;;;;4.60;1.90;;;;;;;8.66;46.48;99689.27;107690;1251;74082;-37
2023/04/29 05:45:56;;;;;;;3.60;2.00;;;;;;;8.79;46.35;99688.59;107766;1250;68879;-36
2023/04/29 05:48:24;;;;;;;4.40;2.00;;;;;;;8.92;46.02;99686.53;107771;1251;71920;-36
2023/04/29 05:50:52;;;;;;;3.10;1.70;;;;;;;9.05;45.34;99690.48;107614;1254;59816;-37
2023/04/29 05:53:20;;;;;;;3.40;1.60;;;;;;;9.18;44.17;99688.00;107744;1250;62736;-37
2023/04/29 05:55:49;;;;;;;3.20;1.80;;;;;;;9.28;43.53;99691.30;107616;1251;71487;-37
2023/04/29 05:58:18;;;;;;;4.40;1.90;;;;;;;9.39;43.41;99692.46;107553;1251;69926;-37
2023/04/29 06:00:48;;;;;;;4.20;1.50;;;;;;;9.48;43.75;99696.36;107547;1251;74877;-37
2023/04/29 06:03:19;;;;;;;5.50;1.70;;;;;;;9.58;43.37;99696.89;107691;1255;60017;-37
2023/04/29 06:05:50;;;;;;;3.40;1.70;;;;;;;9.67;42.12;99700.77;107646;1250;60238;-37
2023/04/29 06:08:29;;;;;;;2.10;1.50;;;;;;;9.77;42.67;99700.04;107743;1251;72361;-37
2023/04/29 06:11:04;;;;;;;3.20;1.70;;;;;;;9.85;42.35;99697.93;107788;1251;68702;-37
2023/04/29 06:13:32;;;;;;;3.00;1.70;;;;;;;9.94;42.27;99695.09;107719;1253;72476;-37
2023/04/29 06:15:59;;;;;;;3.80;1.80;;;;;;;10.06;42.69;99696.93;107727;1254;61196;-37
2023/04/29 06:18:30;;;;;;;3.00;1.70;;;;;;;10.17;41.11;99694.55;107828;1251;59962;-37
2023/04/29 06:20:58;;;;;;;3.70;1.70;;;;;;;10.25;40.36;99691.58;107807;1251;75271;-37
2023/04/29 06:23:25;;;;;;;3.40;1.60;;;;;;;10.30;40.16;99696.36;107740;1250;68504;-37
2023/04/29 06:25:53;;;;;;;2.80;1.60;;;;;;;10.37;39.87;99699.08;107652;1254;73067;-37
2023/04/29 06:28:21;;;;;;;5.60;1.50;;;;;;;10.42;39.10;99692.85;107737;1253;59683;-37
2023/04/29 06:30:49;;;;;;;4.10;1.70;;;;;;;10.50;39.34;99693.98;107653;1256;60453;-37
2023/04/29 06:33:17;;;;;;;3.20;1.50;;;;;;;10.60;39.18;99693.98;107556;1251;74911;-37
2023/04/29 06:35:44;;;;;;;2.80;1.70;;;;;;;10.69;39.26;99689.65;107519;1252;70154;-37
2023/04/29 06:38:30;;;;;;;4.90;1.80;;;;;;;10.81;39.71;99692.94;107673;1252;74364;-37
2023/04/29 06:41:11;;;;;;;4.50;1.40;;;;;;;10.93;39.13;99691.18;107702;1252;61252;-37
2023/04/29 06:43:42;;;;;;;4.10;1.50;;;;;;;11.05;38.60;99692.85;107733;1251;62214;-37
2023/04/29 06:46:29;;;;;;;3.90;1.60;;;;;;;11.18;38.09;99689.88;107286;1251;72562;-37
2023/04/29 06:49:16;;;;;;;4.20;1.30;;;;;;;11.29;37.69;99690.30;107754;1251;67688;-37
2023/04/29 06:51:43;;;;;;;2.70;1.10;;;;;;;11.36;36.66;99692.36;107604;1251;75000;-37
2023/04/29 06:54:11;;;;;;;2.70;1.40;;;;;;;11.45;36.39;99693.02;107756;1251;61976;-37
2023/04/29 06:56:38;;;;;;;3.00;1.40;;;;;;;11.53;35.91;99689.31;107593;1251;60733;-37
2023/04/29 06:59:05;;;;;;;4.00;1.90;;;;;;;11.59;36.20;99689.51;107714;1251;73449;-37
2023/04/29 07:01:35;;;;;;;3.60;1.40;;;;;;;11.64;35.05;99690.08;107789;1251;67528;-37
2023/04/29 07:04:03;;;;;;;2.00;1.40;;;;;;;11.67;34.82;99686.58;107754;1254;73527;-37
2023/04/29 07:06:30;;;;;;;2.50;1.40;;;;;;;11.71;35.37;99691.61;107761;1256;61656;-37
2023/04/29 07:08:57;;;;;;;2.00;1.20;;;;;;;11.78;34.06;99688.34;107616;1251;60429;-37
2023/04/29 07:11:26;;;;;;;2.40;1.50;;;;;;;11.88;34.72;99692.41;107457;1251;74117;-37
2023/04/29 07:13:53;;;;;;;3.00;1.20;;;;;;;11.96;32.77;99693.73;107492;1251;70220;-36
2023/04/29 07:16:21;;;;;;;4.50;1.40;;;;;;;11.98;32.90;99694.40;107653;1256;74727;-37
2023/04/29 07:18:48;;;;;;;2.80;1.50;;;;;;;12.04;33.40;99694.73;107605;1251;61569;-37
2023/04/29 07:21:15;;;;;;;2.10;1.30;;;;;;;12.10;33.02;99694.46;107708;1251;61428;-37
2023/04/29 07:23:42;;;;;;;3.00;1.40;;;;;;;12.15;32.16;99689.58;107556;1251;72597;-37
2023/04/29 07:26:14;;;;;;;5.70;1.60;;;;;;;12.18;32.90;99692.04;107661;1251;70306;-37
2023/04/29 07:28:44;;;;;;;1.50;1.30;;;;;;;12.30;34.41;99697.67;107572;1258;75364;-37
2023/04/29 07:31:11;;;;;;;4.80;1.70;;;;;;;12.43;33.62;99694.02;107771;1251;62647;-37
2023/04/29 07:33:38;;;;;;;2.70;1.30;;;;;;;12.54;33.19;99694.59;107685;1256;60900;-37
2023/04/29 07:36:06;;;;;;;3.10;1.40;;;;;;;12.63;33.13;99692.08;107718;1251;72477;-37
2023/04/29 07:38:36;;;;;;;2.90;1.40;;;;;;;12.69;33.88;99683.02;107746;1251;69147;-37
2023/04/29 07:41:03;;;;;;;3.20;1.40;;;;;;;12.75;33.71;99681.47;107591;1251;75105;-37
2023/04/29 07:43:30;;;;;;;2.90;1.40;;;;;;;12.80;33.25;99673.39;107693;1254;59993;-37
2023/04/29 07:45:58;;;;;;;4.20;1.70;;;;;;;12.83;33.48;99675.13;107751;1256;61405;-37
2023/04/29 07:48:25;;;;;;;3.50;1.70;;;;;;;12.84;32.50;99674.91;107558;1257;73305;-37
2023/04/29 07:50:53;;;;;;;4.60;1.70;;;;;;;12.90;34.14;99674.79;107685;1251;70274;-37
2023/04/29 07:53:20;;;;;;;4.50;1.70;;;;;;;13.01;33.34;99673.23;107730;1251;74968;-37
2023/04/29 07:55:49;;;;;;;3.00;1.80;;;;;;;13.08;34.22;99676.37;107629;1254;60735;-37
2023/04/29 07:58:18;;;;;;;4.20;1.90;;;;;;;13.16;33.55;99673.84;107574;1251;59950;-37
2023/04/29 08:00:46;;;;;;;3.40;1.30;;;;;;;13.24;32.94;99670.38;107644;1251;75179;-37
2023/04/29 08:03:13;;;;;;;3.30;1.60;;;;;;;13.32;32.28;99669.01;107656;1251;68658;-37
2023/04/29 08:05:42;;;;;;;4.20;1.40;;;;;;;13.40;32.89;99669.66;107387;1251;71213;-38
2023/04/29 08:08:13;;;;;;;3.30;1.30;;;;;;;13.53;33.11;99665.52;107569;1251;60431;-38
2023/04/29 08:10:42;;;;;;;2.60;1.30;;;;;;;13.68;31.52;99659.46;107609;1251;61380;-37
2023/04/29 08:13:09;;;;;;;3.70;1.50;;;;;;;13.77;31.52;99663.45;107427;1251;75919;-37
2023/04/29 08:15:38;;;;;;;3.00;1.60;;;;;;;13.87;32.29;99661.38;107620;1251;68846;-37
2023/04/29 08:18:05;;;;;;;2.20;1.40;;;;;;;13.98;32.09;99659.00;107697;1257;74983;-37
2023/04/29 08:20:33;;;;;;;15.70;4.10;;;;;;;14.07;32.47;99654.02;107687;1251;60531;-37
2023/04/29 08:23:00;;;;;;;7.40;2.20;;;;;;;14.17;31.59;99658.80;107683;1257;62055;-37
2023/04/29 08:25:29;;;;;;;2.60;1.40;;;;;;;14.24;31.38;99655.52;107740;1251;75742;-37
2023/04/29 08:27:56;;;;;;;5.30;1.70;;;;;;;14.31;30.71;99649.34;107829;1251;68890;-37
2023/04/29 08:30:23;;;;;;;3.00;1.50;;;;;;;14.38;31.56;99654.16;107700;1251;74800;-37
2023/04/29 08:32:50;;;;;;;3.40;1.40;;;;;;;14.40;31.20;99655.51;107680;1254;61618;-37
2023/04/29 08:35:18;;;;;;;5.10;1.60;;;;;;;14.37;30.89;99651.37;107730;1251;61008;-37
2023/04/29 08:37:46;;;;;;;4.10;1.60;;;;;;;14.33;31.45;99653.72;107701;1251;76126;-38
2023/04/29 08:40:13;;;;;;;4.70;1.60;;;;;;;14.35;31.62;99647.05;107734;1251;69327;-37
2023/04/29 08:42:40;;;;;;;3.80;1.80;;;;;;;14.43;31.81;99650.62;107527;1253;74543;-37
2023/04/29 08:45:08;;;;;;;4.10;1.50;;;;;;;14.47;31.86;99637.27;107546;1251;60813;-37
2023/04/29 08:47:35;;;;;;;3.10;1.50;;;;;;;14.52;32.01;99640.80;107702;1256;60480;-37
2023/04/29 08:50:04;;;;;;;3.70;1.60;;;;;;;14.52;31.97;99643.61;107580;1251;75899;-37
2023/04/29 08:52:31;;;;;;;3.40;1.60;;;;;;;14.55;31.91;99639.90;107640;1252;70100;-37
2023/04/29 08:55:01;;;;;;;3.20;1.20;;;;;;;14.62;32.28;99633.08;107575;1254;74651;-38
2023/04/29 08:57:29;;;;;;;2.20;1.30;;;;;;;14.72;31.88;99634.00;107708;1251;62671;-38
2023/04/29 08:59:59;;;;;;;3.30;1.30;;;;;;;14.82;31.40;99632.27;107702;1251;62514;-38
2023/04/29 09:02:27;;;;;;;2.00;1.10;;;;;;;14.90;30.49;99635.83;107763;1251;75968;-38
2023/04/29 09:04:58;;;;;;;2.80;1.30;;;;;;;14.97;30.18;99634.23;107765;1257;70256;-38
2023/04/29 09:07:25;;;;;;;2.70;1.20;;;;;;;15.05;30.36;99628.90;107641;1251;73983;-38
2023/04/29 09:09:52;;;;;;;2.10;1.40;;;;;;;15.18;31.04;99631.07;107526;1254;62279;-38
2023/04/29 09:12:19;;;;;;;2.30;1.10;;;;;;;15.28;31.23;99624.78;107564;1251;61183;-38
2023/04/29 09:14:47;;;;;;;8.40;1.50;;;;;;;15.29;28.59;99620.02;107653;1251;76103;-38
2023/04/29 09:17:15;;;;;;;3.70;1.60;;;;;;;15.28;28.87;99620.58;107624;1251;67872;-38
2023/04/29 09:19:42;;;;;;;2.40;1.20;;;;;;;15.19;29.38;99629.98;107614;1251;74396;-38
2023/04/29 09:22:10;;;;;;;2.50;1.30;;;;;;;15.18;30.86;99641.67;107737;1251;60552;-38
2023/04/29 09:24:38;;;;;;;2.40;1.10;;;;;;;15.30;30.39;99638.29;107685;1251;60644;-38
2023/04/29 09:27:06;;;;;;;3.10;1.30;;;;;;;15.44;29.78;99632.65;107748;1251;75220;-38
2023/04/29 09:29:35;;;;;;;2.50;1.30;;;;;;;15.55;29.58;99637.55;107697;1251;70246;-38
2023/04/29 09:32:17;;;;;;;2.40;1.40;;;;;;;15.63;29.50;99638.98;107698;1251;74962;-38
2023/04/29 09:34:45;;;;;;;2.10;1.00;;;;;;;15.68;29.31;99633.77;107772;1251;60418;-38
2023/04/29 09:37:23;;;;;;;2.40;1.30;;;;;;;15.74;29.90;99635.19;107738;1251;60782;-38
2023/04/29 09:39:50;;;;;;;3.70;1.00;;;;;;;15.94;30.06;99635.70;107782;1251;76101;-38
2023/04/29 09:42:17;;;;;;;3.30;1.20;;;;;;;16.09;28.25;99632.35;107747;1251;68767;-38
2023/04/29 09:44:45;;;;;;;2.00;1.30;;;;;;;16.13;28.65;99624.00;107738;1251;72676;-38
2023/04/29 09:47:12;;;;;;;3.40;1.30;;;;;;;16.18;27.37;99620.17;107744;1254;61364;-38
2023/04/29 09:49:44;;;;;;;5.00;2.30;;;;;;;16.18;28.05;99621.58;107718;1252;62414;-38
2023/04/29 09:52:15;;;;;;;4.00;1.90;;;;;;;16.19;27.59;99615.95;107731;1251;76325;-38
2023/04/29 09:54:42;;;;;;;2.40;1.80;;;;;;;16.19;27.55;99614.95;107686;1251;69597;-37
2023/04/29 09:57:10;;;;;;;2.50;1.30;;;;;;;16.21;27.69;99617.28;107780;1251;72084;-38
2023/04/29 09:59:39;;;;;;;3.30;1.60;;;;;;;16.10;26.45;99613.05;107734;1251;60539;-38
2023/04/29 10:02:24;;;;;;;3.40;1.50;;;;;;;15.97;26.58;99612.88;107573;1251;61350;-38
2023/04/29 10:04:53;;;;;;;4.70;1.60;;;;;;;15.95;27.63;99615.08;107572;1257;72275;-37
2023/04/29 10:07:21;;;;;;;2.40;1.20;;;;;;;16.00;27.85;99613.13;107668;1251;69985;-38
2023/04/29 10:09:48;;;;;;;3.40;1.40;;;;;;;16.11;27.84;99608.30;107589;1254;73987;-37
2023/04/29 10:12:17;;;;;;;2.60;1.40;;;;;;;16.22;26.63;99612.29;107547;1254;60870;-38
2023/04/29 10:14:50;;;;;;;4.10;2.40;;;;;;;16.34;27.89;99606.25;107638;1255;60665;-37
2023/04/29 10:17:23;;;;;;;3.20;1.50;;;;;;;16.51;26.72;99599.98;107612;1254;74427;-37
2023/04/29 10:20:04;;;;;;;2.40;1.10;;;;;;;16.54;26.64;99596.62;107674;1253;68625;-37
2023/04/29 10:22:41;;;;;;;2.40;1.20;;;;;;;16.61;25.86;99592.09;107644;1255;74540;-37
2023/04/29 10:25:10;;;;;;;3.90;1.40;;;;;;;16.81;26.37;99579.38;107551;1255;60415;-37
2023/04/29 10:27:37;;;;;;;2.70;1.40;;;;;;;17.05;26.01;99584.71;107603;1254;61109;-37
2023/04/29 10:30:06;;;;;;;1.70;1.20;;;;;;;17.14;26.69;99587.33;107415;1254;76073;-38
2023/04/29 10:32:33;;;;;;;2.70;1.40;;;;;;;17.31;25.12;99576.69;107555;1254;70214;-37
2023/04/29 10:35:21;;;;;;;2.30;1.30;;;;;;;17.53;25.65;99582.21;107638;1252;74999;-38
2023/04/29 10:37:49;;;;;;;2.50;1.20;;;;;;;17.66;24.55;99580.27;107580;1252;62494;-37
2023/04/29 10:40:21;;;;;;;3.60;1.40;;;;;;;17.63;24.49;99588.60;107668;1256;61591;-37
2023/04/29 10:42:49;;;;;;;1.60;1.10;;;;;;;17.56;24.36;99588.36;107718;1251;76122;-37
2023/04/29 10:45:21;;;;;;;2.90;1.10;;;;;;;17.53;24.27;99580.64;107747;1251;70199;-38
2023/04/29 10:48:00;;;;;;;3.50;1.30;;;;;;;17.64;24.16;99575.52;107745;1254;72771;-37
2023/04/29 10:50:29;;;;;;;2.70;1.50;;;;;;;17.75;23.26;99566.44;107673;1256;62218;-37
2023/04/29 10:52:57;;;;;;;3.00;1.30;;;;;;;17.71;23.41;99567.32;107519;1251;61992;-38
2023/04/29 10:55:24;;;;;;;3.40;1.50;;;;;;;17.65;22.82;99568.38;107642;1256;76139;-37
2023/04/29 10:57:52;;;;;;;3.50;1.20;;;;;;;17.64;23.37;99570.11;107599;1257;68475;-37
2023/04/29 11:00:26;;;;;;;2.40;1.10;;;;;;;17.72;24.96;99574.44;107791;1256;74353;-37
2023/04/29 11:02:54;;;;;;;1.70;1.30;;;;;;;17.86;24.41;99570.42;107749;1254;61690;-37
2023/04/29 11:05:33;;;;;;;2.30;1.30;;;;;;;18.06;23.99;99571.29;107754;1250;61654;-37
2023/04/29 11:08:21;;;;;;;2.10;1.20;;;;;;;18.27;23.62;99571.20;107715;1251;75546;-37
2023/04/29 11:10:52;;;;;;;2.50;1.10;;;;;;;18.43;24.23;99567.52;107753;1251;69903;-37
2023/04/29 11:13:24;;;;;;;3.50;1.30;;;;;;;18.57;23.47;99565.98;107636;1256;74582;-37
2023/04/29 11:15:52;;;;;;;2.50;1.30;;;;;;;18.63;23.11;99565.08;107681;1257;61230;-38
2023/04/29 11:18:19;;;;;;;2.90;1.70;;;;;;;18.52;22.18;99555.67;107772;1252;61473;-37
2023/04/29 11:21:21;;;;;;;2.70;1.60;;;;;;;18.38;23.18;99555.80;107596;1251;76101;-38
2023/04/29 11:23:49;;;;;;;4.20;1.60;;;;;;;18.24;22.40;99549.82;107372;1257;70323;-37
2023/04/29 11:26:20;;;;;;;3.00;1.40;;;;;;;18.21;23.71;99545.30;107589;1251;74171;-37
2023/04/29 11:28:47;;;;;;;3.40;1.70;;;;;;;18.28;22.88;99540.05;107781;1254;62521;-37
2023/04/29 11:31:14;;;;;;;3.40;1.60;;;;;;;18.36;23.14;99540.23;107716;1257;61043;-38
2023/04/29 11:33:42;;;;;;;1.90;1.30;;;;;;;18.44;22.01;99536.53;107668;1251;76196;-38
2023/04/29 11:36:13;;;;;;;2.40;1.50;;;;;;;18.50;22.60;99545.02;107742;1256;70104;-38
2023/04/29 11:38:40;;;;;;;3.40;1.40;;;;;;;18.69;22.88;99541.54;107563;1251;74971;-37
2023/04/29 11:41:07;;;;;;;5.10;1.60;;;;;;;18.92;22.09;99537.67;107551;1257;62666;-38
2023/04/29 11:43:35;;;;;;;2.70;1.40;;;;;;;18.97;21.99;99534.31;107714;1251;62705;-38
2023/04/29 11:46:02;;;;;;;3.40;1.50;;;;;;;19.03;22.10;99536.43;107646;1251;76151;-38